SHT12A EGLL-EGNT
Flight info
| Callsign | SHT12A |
|---|---|
| Flight time | 0h 41m |
| Altitude | 28000 |
| Route | ULTIB T420 AKUPA UY250 RIMTO |
| Aircraft | A320/M-SDE3FGHIRWY/LB1 |
Departure
| Time | 2026-05-07 19:23 |
|---|---|
| Airport | London Heathrow Airport (EGLL) |
Arrival
| Time | 2026-05-07 20:05 |
|---|---|
| Airport | Newcastle International Airport (EGNT) |
| Time | Latitude | Longitude | Altitude | Speed | Heading |
|---|---|---|---|---|---|
| 2026-05-07 18:56 | 51.46931 | -0.48647 | 90 ft | 0 kts | 360° |
| 2026-05-07 19:15 | 51.46926 | -0.48647 | 86 ft | 4 kts | 360° |
| 2026-05-07 19:15 | 51.46900 | -0.48647 | 88 ft | 2 kts | 360° |
| 2026-05-07 19:16 | 51.46882 | -0.48650 | 89 ft | 4 kts | 53° |
| 2026-05-07 19:16 | 51.46877 | -0.48684 | 87 ft | 4 kts | 90° |
| 2026-05-07 19:16 | 51.46877 | -0.48702 | 88 ft | 0 kts | 90° |
| 2026-05-07 19:19 | 51.46877 | -0.48685 | 87 ft | 4 kts | 90° |
| 2026-05-07 19:19 | 51.46877 | -0.48613 | 87 ft | 8 kts | 89° |
| 2026-05-07 19:19 | 51.46876 | -0.48519 | 86 ft | 9 kts | 98° |
| 2026-05-07 19:20 | 51.46833 | -0.48470 | 88 ft | 6 kts | 182° |
| 2026-05-07 19:20 | 51.46829 | -0.48471 | 87 ft | 0 kts | 185° |
| 2026-05-07 19:20 | 51.46820 | -0.48470 | 88 ft | 4 kts | 178° |
| 2026-05-07 19:20 | 51.46774 | -0.48471 | 86 ft | 8 kts | 188° |
| 2026-05-07 19:21 | 51.46742 | -0.48545 | 88 ft | 10 kts | 267° |
| 2026-05-07 19:21 | 51.46741 | -0.48662 | 86 ft | 7 kts | 269° |
| 2026-05-07 19:21 | 51.46717 | -0.48740 | 86 ft | 9 kts | 213° |
| 2026-05-07 19:21 | 51.46647 | -0.48749 | 86 ft | 11 kts | 182° |
| 2026-05-07 19:22 | 51.46569 | -0.48784 | 86 ft | 10 kts | 194° |
| 2026-05-07 19:22 | 51.46496 | -0.48751 | 88 ft | 12 kts | 135° |
| 2026-05-07 19:22 | 51.46478 | -0.48597 | 86 ft | 19 kts | 90° |
| 2026-05-07 19:22 | 51.46479 | -0.48020 | 87 ft | 85 kts | 90° |
| 2026-05-07 19:23 | 51.46483 | -0.46774 | 91 ft | 136 kts | 90° |
| 2026-05-07 19:23 | 51.46503 | -0.45062 | 306 ft | 157 kts | 87° |
| 2026-05-07 19:23 | 51.46546 | -0.43319 | 951 ft | 157 kts | 89° |
| 2026-05-07 19:23 | 51.46606 | -0.41537 | 1415 ft | 170 kts | 80° |
| 2026-05-07 19:24 | 51.47217 | -0.39798 | 1676 ft | 194 kts | 49° |
| 2026-05-07 19:24 | 51.48159 | -0.38094 | 1927 ft | 218 kts | 51° |
| 2026-05-07 19:24 | 51.49204 | -0.36142 | 2285 ft | 242 kts | 51° |
| 2026-05-07 19:24 | 51.50336 | -0.33997 | 2915 ft | 256 kts | 51° |
| 2026-05-07 19:25 | 51.51484 | -0.31810 | 3881 ft | 258 kts | 51° |
| 2026-05-07 19:25 | 51.52430 | -0.29408 | 4766 ft | 261 kts | 69° |
| 2026-05-07 19:25 | 51.53044 | -0.26644 | 5656 ft | 264 kts | 69° |
| 2026-05-07 19:25 | 51.54042 | -0.24142 | 6461 ft | 271 kts | 43° |
| 2026-05-07 19:26 | 51.55661 | -0.22598 | 7205 ft | 276 kts | 15° |
| 2026-05-07 19:26 | 51.57580 | -0.22481 | 7957 ft | 279 kts | 345° |
| 2026-05-07 19:26 | 51.59446 | -0.23395 | 8764 ft | 283 kts | 343° |
| 2026-05-07 19:26 | 51.61378 | -0.24167 | 9558 ft | 288 kts | 341° |
| 2026-05-07 19:27 | 51.63239 | -0.25414 | 10290 ft | 292 kts | 331° |
| 2026-05-07 19:27 | 51.65082 | -0.26986 | 10517 ft | 315 kts | 329° |
| 2026-05-07 19:27 | 51.67045 | -0.28803 | 10719 ft | 336 kts | 327° |
| 2026-05-07 19:27 | 51.69078 | -0.30761 | 11259 ft | 344 kts | 327° |
| 2026-05-07 19:28 | 51.71143 | -0.32777 | 11912 ft | 348 kts | 327° |
| 2026-05-07 19:28 | 51.73232 | -0.34823 | 12575 ft | 353 kts | 327° |
| 2026-05-07 19:28 | 51.75345 | -0.36884 | 13241 ft | 357 kts | 327° |
| 2026-05-07 19:28 | 51.77492 | -0.38967 | 13900 ft | 361 kts | 327° |
| 2026-05-07 19:29 | 51.79630 | -0.41039 | 14441 ft | 365 kts | 327° |
| 2026-05-07 19:29 | 51.81817 | -0.43159 | 15060 ft | 368 kts | 327° |
| 2026-05-07 19:29 | 51.84028 | -0.45304 | 15638 ft | 371 kts | 327° |
| 2026-05-07 19:29 | 51.86259 | -0.47465 | 16235 ft | 374 kts | 327° |
| 2026-05-07 19:30 | 51.88501 | -0.49636 | 16839 ft | 377 kts | 327° |
| 2026-05-07 19:30 | 51.90756 | -0.51825 | 17451 ft | 379 kts | 327° |
| 2026-05-07 19:30 | 51.93032 | -0.54040 | 18075 ft | 382 kts | 327° |
| 2026-05-07 19:30 | 51.95317 | -0.56270 | 18657 ft | 385 kts | 327° |
| 2026-05-07 19:31 | 51.97616 | -0.58522 | 19227 ft | 387 kts | 327° |
| 2026-05-07 19:31 | 51.99904 | -0.60768 | 19786 ft | 390 kts | 327° |
| 2026-05-07 19:31 | 52.02238 | -0.63054 | 20359 ft | 393 kts | 327° |
| 2026-05-07 19:31 | 52.04585 | -0.65355 | 20922 ft | 395 kts | 326° |
| 2026-05-07 19:32 | 52.06949 | -0.67673 | 21469 ft | 398 kts | 326° |
| 2026-05-07 19:32 | 52.09327 | -0.70008 | 22000 ft | 401 kts | 326° |
| 2026-05-07 19:32 | 52.11719 | -0.72361 | 22528 ft | 403 kts | 326° |
| 2026-05-07 19:32 | 52.14131 | -0.74739 | 23023 ft | 406 kts | 326° |
| 2026-05-07 19:33 | 52.16552 | -0.77131 | 23513 ft | 408 kts | 326° |
| 2026-05-07 19:33 | 52.18989 | -0.79540 | 23925 ft | 411 kts | 326° |
| 2026-05-07 19:33 | 52.21438 | -0.81964 | 24333 ft | 413 kts | 326° |
| 2026-05-07 19:33 | 52.23866 | -0.84371 | 24732 ft | 415 kts | 326° |
| 2026-05-07 19:34 | 52.26349 | -0.86834 | 25132 ft | 417 kts | 326° |
| 2026-05-07 19:34 | 52.28837 | -0.89306 | 25536 ft | 419 kts | 326° |
| 2026-05-07 19:34 | 52.31335 | -0.91794 | 25916 ft | 420 kts | 326° |
| 2026-05-07 19:34 | 52.33810 | -0.94261 | 26299 ft | 422 kts | 326° |
| 2026-05-07 19:35 | 52.36326 | -0.96767 | 26664 ft | 424 kts | 326° |
| 2026-05-07 19:35 | 52.38854 | -0.99285 | 27030 ft | 426 kts | 326° |
| 2026-05-07 19:35 | 52.41393 | -1.01821 | 27400 ft | 428 kts | 326° |
| 2026-05-07 19:35 | 52.43943 | -1.04374 | 27737 ft | 431 kts | 326° |
| 2026-05-07 19:36 | 52.46632 | -1.06595 | 27994 ft | 436 kts | 335° |
| 2026-05-07 19:36 | 52.49517 | -1.08073 | 28028 ft | 434 kts | 345° |
| 2026-05-07 19:36 | 52.55555 | -1.08610 | 28022 ft | 437 kts | 0° |
| 2026-05-07 19:37 | 52.61645 | -1.08135 | 28019 ft | 437 kts | 0° |
| 2026-05-07 19:37 | 52.67720 | -1.07678 | 28021 ft | 437 kts | 0° |
| 2026-05-07 19:38 | 52.73802 | -1.07379 | 28055 ft | 436 kts | 354° |
| 2026-05-07 19:38 | 52.79741 | -1.08903 | 28058 ft | 433 kts | 347° |
| 2026-05-07 19:39 | 52.85674 | -1.10709 | 28050 ft | 434 kts | 347° |
| 2026-05-07 19:39 | 52.91634 | -1.12531 | 28048 ft | 435 kts | 347° |
| 2026-05-07 19:40 | 52.97553 | -1.14341 | 28049 ft | 435 kts | 347° |
| 2026-05-07 19:40 | 53.03511 | -1.16160 | 28050 ft | 436 kts | 348° |
| 2026-05-07 19:41 | 53.09492 | -1.17988 | 28040 ft | 437 kts | 348° |
| 2026-05-07 19:41 | 53.15456 | -1.19826 | 28038 ft | 438 kts | 348° |
| 2026-05-07 19:42 | 53.21455 | -1.21677 | 28041 ft | 438 kts | 348° |
| 2026-05-07 19:42 | 53.27461 | -1.23528 | 28040 ft | 439 kts | 348° |
| 2026-05-07 19:43 | 53.33442 | -1.25392 | 28037 ft | 440 kts | 348° |
| 2026-05-07 19:43 | 53.39470 | -1.27281 | 28035 ft | 441 kts | 348° |
| 2026-05-07 19:44 | 53.45585 | -1.28479 | 28038 ft | 442 kts | 355° |
| 2026-05-07 19:44 | 53.51701 | -1.29225 | 28041 ft | 443 kts | 355° |
| 2026-05-07 19:45 | 53.57794 | -1.30592 | 28042 ft | 441 kts | 343° |
| 2026-05-07 19:45 | 53.63326 | -1.34751 | 28036 ft | 437 kts | 327° |
| 2026-05-07 19:46 | 53.68540 | -1.40043 | 28033 ft | 437 kts | 327° |
| 2026-05-07 19:46 | 53.73769 | -1.45350 | 28039 ft | 438 kts | 327° |
| 2026-05-07 19:47 | 53.79003 | -1.50665 | 28014 ft | 439 kts | 327° |
| 2026-05-07 19:47 | 53.84219 | -1.55991 | 28011 ft | 440 kts | 327° |
| 2026-05-07 19:48 | 53.86840 | -1.58678 | 27994 ft | 440 kts | 327° |
| 2026-05-07 19:48 | 53.89449 | -1.61351 | 27709 ft | 432 kts | 327° |
| 2026-05-07 19:48 | 53.92006 | -1.63973 | 27172 ft | 428 kts | 327° |
| 2026-05-07 19:48 | 53.94541 | -1.66577 | 26623 ft | 424 kts | 327° |
| 2026-05-07 19:49 | 53.97022 | -1.69132 | 26086 ft | 421 kts | 327° |
| 2026-05-07 19:49 | 53.99520 | -1.71714 | 25561 ft | 418 kts | 326° |
| 2026-05-07 19:49 | 54.01997 | -1.74283 | 25030 ft | 416 kts | 326° |
| 2026-05-07 19:49 | 54.04467 | -1.76845 | 24403 ft | 417 kts | 326° |
| 2026-05-07 19:50 | 54.06946 | -1.79415 | 23747 ft | 418 kts | 326° |
| 2026-05-07 19:50 | 54.09425 | -1.81979 | 23031 ft | 418 kts | 328° |
| 2026-05-07 19:50 | 54.12062 | -1.84076 | 22398 ft | 418 kts | 339° |
| 2026-05-07 19:50 | 54.14896 | -1.85228 | 21747 ft | 419 kts | 351° |
| 2026-05-07 19:51 | 54.17806 | -1.85396 | 21110 ft | 419 kts | 3° |
| 2026-05-07 19:51 | 54.20691 | -1.84668 | 20471 ft | 419 kts | 9° |
| 2026-05-07 19:51 | 54.23516 | -1.83779 | 20019 ft | 415 kts | 9° |
| 2026-05-07 19:51 | 54.26371 | -1.82872 | 19289 ft | 418 kts | 10° |
| 2026-05-07 19:52 | 54.29208 | -1.81971 | 18923 ft | 412 kts | 10° |
| 2026-05-07 19:52 | 54.32010 | -1.81086 | 18504 ft | 407 kts | 9° |
| 2026-05-07 19:52 | 54.34790 | -1.80212 | 17998 ft | 404 kts | 9° |
| 2026-05-07 19:52 | 54.37549 | -1.79347 | 17444 ft | 401 kts | 9° |
| 2026-05-07 19:53 | 54.40280 | -1.78491 | 16907 ft | 397 kts | 9° |
| 2026-05-07 19:53 | 54.42991 | -1.77637 | 16356 ft | 394 kts | 9° |
| 2026-05-07 19:53 | 54.45653 | -1.76796 | 15835 ft | 392 kts | 9° |
| 2026-05-07 19:53 | 54.48320 | -1.75951 | 15294 ft | 389 kts | 9° |
| 2026-05-07 19:54 | 54.50979 | -1.75110 | 14743 ft | 387 kts | 9° |
| 2026-05-07 19:54 | 54.53623 | -1.74275 | 14206 ft | 384 kts | 10° |
| 2026-05-07 19:54 | 54.56246 | -1.73442 | 13639 ft | 379 kts | 10° |
| 2026-05-07 19:54 | 54.58821 | -1.72617 | 12626 ft | 373 kts | 9° |
| 2026-05-07 19:55 | 54.61320 | -1.71815 | 11709 ft | 367 kts | 9° |
| 2026-05-07 19:55 | 54.63748 | -1.71033 | 11500 ft | 341 kts | 9° |
| 2026-05-07 19:55 | 54.66012 | -1.70298 | 11347 ft | 318 kts | 9° |
| 2026-05-07 19:55 | 54.68147 | -1.69608 | 10916 ft | 308 kts | 8° |
| 2026-05-07 19:56 | 54.69540 | -1.69159 | 10554 ft | 304 kts | 8° |
| 2026-05-07 19:56 | 54.71598 | -1.68384 | 9994 ft | 302 kts | 13° |
| 2026-05-07 19:56 | 54.74247 | -1.66981 | 9206 ft | 297 kts | 15° |
| 2026-05-07 19:56 | 54.75547 | -1.66272 | 8923 ft | 294 kts | 15° |
| 2026-05-07 19:57 | 54.77502 | -1.65206 | 8267 ft | 294 kts | 15° |
| 2026-05-07 19:57 | 54.79454 | -1.64148 | 7660 ft | 292 kts | 15° |
| 2026-05-07 19:57 | 54.81400 | -1.63103 | 7070 ft | 290 kts | 15° |
| 2026-05-07 19:57 | 54.83329 | -1.62076 | 6495 ft | 288 kts | 15° |
| 2026-05-07 19:58 | 54.85224 | -1.61085 | 6076 ft | 278 kts | 15° |
| 2026-05-07 19:58 | 54.86989 | -1.60164 | 5936 ft | 260 kts | 15° |
| 2026-05-07 19:58 | 54.88695 | -1.59270 | 5664 ft | 254 kts | 15° |
| 2026-05-07 19:58 | 54.90382 | -1.58391 | 5387 ft | 252 kts | 15° |
| 2026-05-07 19:59 | 54.92057 | -1.57514 | 5088 ft | 251 kts | 15° |
| 2026-05-07 19:59 | 54.93729 | -1.56634 | 4774 ft | 250 kts | 15° |
| 2026-05-07 19:59 | 54.95395 | -1.55760 | 4430 ft | 250 kts | 15° |
| 2026-05-07 19:59 | 54.97060 | -1.54892 | 4090 ft | 249 kts | 15° |
| 2026-05-07 20:00 | 54.98720 | -1.54037 | 3766 ft | 248 kts | 15° |
| 2026-05-07 20:00 | 55.00373 | -1.53184 | 3442 ft | 249 kts | 15° |
| 2026-05-07 20:00 | 55.02034 | -1.52327 | 3136 ft | 248 kts | 15° |
| 2026-05-07 20:00 | 55.03668 | -1.51502 | 2837 ft | 247 kts | 15° |
| 2026-05-07 20:01 | 55.05325 | -1.50675 | 2565 ft | 244 kts | 15° |
| 2026-05-07 20:01 | 55.06938 | -1.49873 | 2434 ft | 236 kts | 14° |
| 2026-05-07 20:01 | 55.08515 | -1.49736 | 2297 ft | 222 kts | 339° |
| 2026-05-07 20:01 | 55.09658 | -1.51236 | 2248 ft | 200 kts | 291° |
| 2026-05-07 20:02 | 55.09805 | -1.53394 | 2163 ft | 170 kts | 243° |
| 2026-05-07 20:02 | 55.09038 | -1.54747 | 1977 ft | 155 kts | 205° |
| 2026-05-07 20:02 | 55.08151 | -1.55701 | 1795 ft | 143 kts | 212° |
| 2026-05-07 20:02 | 55.07429 | -1.56827 | 1653 ft | 138 kts | 223° |
| 2026-05-07 20:03 | 55.06861 | -1.58162 | 1471 ft | 136 kts | 229° |
| 2026-05-07 20:03 | 55.06388 | -1.59558 | 1280 ft | 135 kts | 233° |
| 2026-05-07 20:03 | 55.05956 | -1.60997 | 1102 ft | 133 kts | 234° |
| 2026-05-07 20:03 | 55.05546 | -1.62444 | 915 ft | 134 kts | 236° |
| 2026-05-07 20:04 | 55.05141 | -1.63925 | 736 ft | 134 kts | 238° |
| 2026-05-07 20:04 | 55.04736 | -1.65426 | 556 ft | 139 kts | 242° |
| 2026-05-07 20:04 | 55.04327 | -1.66967 | 363 ft | 141 kts | 244° |
| 2026-05-07 20:04 | 55.03919 | -1.68494 | 251 ft | 129 kts | 245° |
| 2026-05-07 20:05 | 55.03644 | -1.69532 | 258 ft | 52 kts | 244° |
| 2026-05-07 20:05 | 55.03581 | -1.69823 | 260 ft | 22 kts | 265° |
| 2026-05-07 20:05 | 55.03590 | -1.70096 | 263 ft | 23 kts | 274° |
| 2026-05-07 20:05 | 55.03597 | -1.70293 | 266 ft | 13 kts | 274° |
| 2026-05-07 20:06 | 55.03610 | -1.70416 | 267 ft | 10 kts | 302° |
| 2026-05-07 20:06 | 55.03685 | -1.70435 | 267 ft | 12 kts | 4° |
| 2026-05-07 20:06 | 55.03772 | -1.70421 | 267 ft | 13 kts | 11° |
| 2026-05-07 20:06 | 55.03871 | -1.70389 | 267 ft | 15 kts | 4° |
| 2026-05-07 20:07 | 55.03950 | -1.70380 | 267 ft | 12 kts | 6° |
| 2026-05-07 20:07 | 55.04013 | -1.70326 | 267 ft | 10 kts | 31° |
| 2026-05-07 20:07 | 55.04036 | -1.70263 | 267 ft | 7 kts | 94° |
| 2026-05-07 20:07 | 55.04033 | -1.70209 | 267 ft | 2 kts | 94° |
| 2026-05-07 20:08 | 55.04033 | -1.70202 | 267 ft | 0 kts | 94° |